sensor_id;sensor_type;location;lat;lon;timestamp;pressure;altitude;pressure_sealevel;temperature;humidity
20909;BME280;10614;53.198;6.570;2023-02-13T00:01:19;103911.50;;;7.08;100.00
20909;BME280;10614;53.198;6.570;2023-02-13T00:03:21;103916.75;;;7.08;100.00
20909;BME280;10614;53.198;6.570;2023-02-13T00:05:22;103910.63;;;7.07;100.00
20909;BME280;10614;53.198;6.570;2023-02-13T00:07:24;103911.53;;;7.09;100.00
20909;BME280;10614;53.198;6.570;2023-02-13T00:09:25;103901.91;;;7.08;100.00
20909;BME280;10614;53.198;6.570;2023-02-13T00:11:27;103899.28;;;7.08;100.00
20909;BME280;10614;53.198;6.570;2023-02-13T00:13:29;103899.28;;;7.08;100.00
20909;BME280;10614;53.198;6.570;2023-02-13T00:15:30;103894.88;;;7.06;100.00
20909;BME280;10614;53.198;6.570;2023-02-13T00:17:34;103901.03;;;7.08;100.00
20909;BME280;10614;53.198;6.570;2023-02-13T00:19:36;103894.06;;;7.08;100.00
20909;BME280;10614;53.198;6.570;2023-02-13T00:21:37;103894.91;;;7.07;100.00
20909;BME280;10614;53.198;6.570;2023-02-13T00:23:39;103889.59;;;7.04;100.00
20909;BME280;10614;53.198;6.570;2023-02-13T00:25:41;103896.56;;;7.04;100.00
20909;BME280;10614;53.198;6.570;2023-02-13T00:27:42;103894.81;;;7.04;100.00
20909;BME280;10614;53.198;6.570;2023-02-13T00:29:44;103897.44;;;7.04;100.00
20909;BME280;10614;53.198;6.570;2023-02-13T00:31:46;103897.44;;;7.04;100.00
20909;BME280;10614;53.198;6.570;2023-02-13T00:33:49;103889.59;;;7.04;100.00
20909;BME280;10614;53.198;6.570;2023-02-13T00:35:50;103886.97;;;7.03;100.00
20909;BME280;10614;53.198;6.570;2023-02-13T00:37:52;103879.06;;;7.01;100.00
20909;BME280;10614;53.198;6.570;2023-02-13T00:39:54;103879.88;;;6.98;100.00
20909;BME280;10614;53.198;6.570;2023-02-13T00:41:55;103877.25;;;6.98;100.00
20909;BME280;10614;53.198;6.570;2023-02-13T00:43:57;103890.38;;;7.00;100.00
20909;BME280;10614;53.198;6.570;2023-02-13T00:45:59;103888.56;;;6.97;100.00
20909;BME280;10614;53.198;6.570;2023-02-13T00:48:00;103888.66;;;7.01;100.00
20909;BME280;10614;53.198;6.570;2023-02-13T00:50:05;103881.66;;;7.01;100.00
20909;BME280;10614;53.198;6.570;2023-02-13T00:52:06;103883.41;;;7.01;100.00
20909;BME280;10614;53.198;6.570;2023-02-13T00:54:08;103878.13;;;6.99;100.00
20909;BME280;10614;53.198;6.570;2023-02-13T00:56:10;103878.13;;;6.99;100.00
20909;BME280;10614;53.198;6.570;2023-02-13T00:58:12;103887.78;;;7.00;100.00
20909;BME280;10614;53.198;6.570;2023-02-13T01:00:15;103888.66;;;7.01;100.00
20909;BME280;10614;53.198;6.570;2023-02-13T01:02:17;103892.09;;;6.98;100.00
20909;BME280;10614;53.198;6.570;2023-02-13T01:04:19;103884.06;;;6.92;100.00
20909;BME280;10614;53.198;6.570;2023-02-13T01:06:22;103884.06;;;6.92;100.00
20909;BME280;10614;53.198;6.570;2023-02-13T01:08:24;103884.03;;;6.90;100.00
20909;BME280;10614;53.198;6.570;2023-02-13T01:10:27;103882.31;;;6.92;100.00
20909;BME280;10614;53.198;6.570;2023-02-13T01:12:29;103889.25;;;6.89;100.00
20909;BME280;10614;53.198;6.570;2023-02-13T01:14:30;103890.94;;;6.87;100.00
20909;BME280;10614;53.198;6.570;2023-02-13T01:16:32;103884.81;;;6.86;100.00
20909;BME280;10614;53.198;6.570;2023-02-13T01:18:33;103890.06;;;6.88;100.00
20909;BME280;10614;53.198;6.570;2023-02-13T01:20:35;103889.25;;;6.89;100.00
20909;BME280;10614;53.198;6.570;2023-02-13T01:22:38;103893.63;;;6.90;100.00
20909;BME280;10614;53.198;6.570;2023-02-13T01:24:43;103889.25;;;6.90;100.00
20909;BME280;10614;53.198;6.570;2023-02-13T01:26:45;103887.56;;;6.91;100.00
20909;BME280;10614;53.198;6.570;2023-02-13T01:28:46;103877.06;;;6.91;100.00
20909;BME280;10614;53.198;6.570;2023-02-13T01:30:52;103875.28;;;6.90;100.00
20909;BME280;10614;53.198;6.570;2023-02-13T01:32:53;103879.69;;;6.91;100.00
20909;BME280;10614;53.198;6.570;2023-02-13T01:34:55;103877.06;;;6.91;100.00
20909;BME280;10614;53.198;6.570;2023-02-13T01:36:57;103875.34;;;6.91;100.00
20909;BME280;10614;53.198;6.570;2023-02-13T01:39:00;103877.06;;;6.91;100.00
20909;BME280;10614;53.198;6.570;2023-02-13T01:41:03;103877.06;;;6.91;100.00
20909;BME280;10614;53.198;6.570;2023-02-13T01:43:07;103880.53;;;6.90;100.00
20909;BME280;10614;53.198;6.570;2023-02-13T01:45:22;103884.94;;;6.91;100.00
20909;BME280;10614;53.198;6.570;2023-02-13T01:47:26;103876.16;;;6.89;100.00
20909;BME280;10614;53.198;6.570;2023-02-13T01:49:29;103874.41;;;6.89;100.00
20909;BME280;10614;53.198;6.570;2023-02-13T01:51:32;103875.28;;;6.90;100.00
20909;BME280;10614;53.198;6.570;2023-02-13T01:53:38;103878.78;;;6.89;100.00
20909;BME280;10614;53.198;6.570;2023-02-13T01:55:44;103873.53;;;6.89;100.00
20909;BME280;10614;53.198;6.570;2023-02-13T01:57:50;103873.53;;;6.89;100.00
20909;BME280;10614;53.198;6.570;2023-02-13T01:59:57;103875.28;;;6.88;100.00
20909;BME280;10614;53.198;6.570;2023-02-13T02:02:01;103872.59;;;6.87;100.00
20909;BME280;10614;53.198;6.570;2023-02-13T02:04:07;103867.31;;;6.84;100.00
20909;BME280;10614;53.198;6.570;2023-02-13T02:06:14;103863.72;;;6.80;100.00
20909;BME280;10614;53.198;6.570;2023-02-13T02:08:18;103855.69;;;6.74;100.00
20909;BME280;10614;53.198;6.570;2023-02-13T02:10:20;103850.28;;;6.66;100.00
20909;BME280;10614;53.198;6.570;2023-02-13T02:12:26;103854.59;;;6.64;100.00
20909;BME280;10614;53.198;6.570;2023-02-13T02:14:30;103852.75;;;6.60;100.00
20909;BME280;10614;53.198;6.570;2023-02-13T02:16:32;103847.47;;;6.59;100.00
20909;BME280;10614;53.198;6.570;2023-02-13T02:18:33;103850.91;;;6.56;100.00
20909;BME280;10614;53.198;6.570;2023-02-13T02:28:35;103843.88;;;6.53;100.00
20909;BME280;10614;53.198;6.570;2023-02-13T02:33:29;103844.00;;;6.58;100.00
20909;BME280;10614;53.198;6.570;2023-02-13T02:35:38;103845.75;;;6.59;100.00
20909;BME280;10614;53.198;6.570;2023-02-13T02:37:58;103843.19;;;6.62;100.00
20909;BME280;10614;53.198;6.570;2023-02-13T02:40:11;103844.00;;;6.60;100.00
20909;BME280;10614;53.198;6.570;2023-02-13T02:42:27;103839.69;;;6.62;100.00
20909;BME280;10614;53.198;6.570;2023-02-13T02:44:36;103847.63;;;6.65;100.00
20909;BME280;10614;53.198;6.570;2023-02-13T02:46:47;103832.81;;;6.65;100.00
20909;BME280;10614;53.198;6.570;2023-02-13T02:49:14;103836.38;;;6.67;100.00
20909;BME280;10614;53.198;6.570;2023-02-13T02:51:40;103830.28;;;6.68;100.00
20909;BME280;10614;53.198;6.570;2023-02-13T02:53:55;103835.44;;;6.65;100.00
20909;BME280;10614;53.198;6.570;2023-02-13T02:56:07;103834.53;;;6.65;100.00
20909;BME280;10614;53.198;6.570;2023-02-13T02:58:16;103832.72;;;6.61;100.00
20909;BME280;10614;53.198;6.570;2023-02-13T03:00:38;103825.56;;;6.55;100.00
20909;BME280;10614;53.198;6.570;2023-02-13T03:02:58;103822.00;;;6.51;100.00
20909;BME280;10614;53.198;6.570;2023-02-13T03:05:21;103817.72;;;6.53;100.00
20909;BME280;10614;53.198;6.570;2023-02-13T03:07:42;103825.56;;;6.53;100.00
20909;BME280;10614;53.198;6.570;2023-02-13T03:09:46;103822.94;;;6.53;100.00
20909;BME280;10614;53.198;6.570;2023-02-13T03:12:07;103822.06;;;6.54;100.00
20909;BME280;10614;53.198;6.570;2023-02-13T03:14:27;103817.72;;;6.53;100.00
20909;BME280;10614;53.198;6.570;2023-02-13T03:16:29;103816.00;;;6.55;100.00
20909;BME280;10614;53.198;6.570;2023-02-13T03:18:51;103812.53;;;6.57;100.00
20909;BME280;10614;53.198;6.570;2023-02-13T03:21:16;103817.81;;;6.58;100.00
20909;BME280;10614;53.198;6.570;2023-02-13T03:23:44;103817.00;;;6.61;100.00
20909;BME280;10614;53.198;6.570;2023-02-13T03:26:06;103825.78;;;6.63;100.00
20909;BME280;10614;53.198;6.570;2023-02-13T03:28:14;103817.06;;;6.64;100.00
20909;BME280;10614;53.198;6.570;2023-02-13T03:30:43;103810.16;;;6.66;100.00
20909;BME280;10614;53.198;6.570;2023-02-13T03:33:01;103811.03;;;6.66;100.00
20909;BME280;10614;53.198;6.570;2023-02-13T03:35:17;103809.25;;;6.65;100.00
20909;BME280;10614;53.198;6.570;2023-02-13T03:37:43;103807.53;;;6.66;100.00
20909;BME280;10614;53.198;6.570;2023-02-13T03:39:59;103809.25;;;6.65;100.00
20909;BME280;10614;53.198;6.570;2023-02-13T03:42:05;103815.44;;;6.67;100.00
20909;BME280;10614;53.198;6.570;2023-02-13T03:44:14;103825.03;;;6.68;100.00
20909;BME280;10614;53.198;6.570;2023-02-13T03:46:18;103816.31;;;6.68;100.00
20909;BME280;10614;53.198;6.570;2023-02-13T03:48:23;103823.28;;;6.69;100.00
20909;BME280;10614;53.198;6.570;2023-02-13T03:50:44;103819.78;;;6.68;100.00
20909;BME280;10614;53.198;6.570;2023-02-13T03:52:50;103824.16;;;6.69;100.00
20909;BME280;10614;53.198;6.570;2023-02-13T03:54:55;103821.56;;;6.69;100.00
20909;BME280;10614;53.198;6.570;2023-02-13T03:57:18;103819.78;;;6.68;100.00
20909;BME280;10614;53.198;6.570;2023-02-13T03:59:38;103823.22;;;6.66;100.00
20909;BME280;10614;53.198;6.570;2023-02-13T04:01:44;103826.69;;;6.65;100.00
20909;BME280;10614;53.198;6.570;2023-02-13T04:03:50;103826.69;;;6.65;100.00
20909;BME280;10614;53.198;6.570;2023-02-13T04:05:56;103827.50;;;6.62;100.00
20909;BME280;10614;53.198;6.570;2023-02-13T04:08:03;103825.72;;;6.61;100.00
20909;BME280;10614;53.198;6.570;2023-02-13T04:10:08;103829.19;;;6.60;100.00
20909;BME280;10614;53.198;6.570;2023-02-13T04:12:15;103829.19;;;6.60;100.00
20909;BME280;10614;53.198;6.570;2023-02-13T04:14:22;103840.50;;;6.59;100.00
20909;BME280;10614;53.198;6.570;2023-02-13T04:16:28;103837.84;;;6.58;100.00
20909;BME280;10614;53.198;6.570;2023-02-13T04:18:32;103833.53;;;6.58;100.00
20909;BME280;10614;53.198;6.570;2023-02-13T04:20:34;103833.53;;;6.60;100.00
20909;BME280;10614;53.198;6.570;2023-02-13T04:22:41;103839.66;;;6.60;100.00
20909;BME280;10614;53.198;6.570;2023-02-13T04:24:44;103834.41;;;6.60;100.00
20909;BME280;10614;53.198;6.570;2023-02-13T04:26:46;103836.22;;;6.61;100.00
20909;BME280;10614;53.198;6.570;2023-02-13T04:28:48;103838.81;;;6.61;100.00
20909;BME280;10614;53.198;6.570;2023-02-13T04:30:50;103831.84;;;6.62;100.00
20909;BME280;10614;53.198;6.570;2023-02-13T04:32:51;103835.31;;;6.61;100.00
20909;BME280;10614;53.198;6.570;2023-02-13T04:34:53;103835.31;;;6.61;100.00
20909;BME280;10614;53.198;6.570;2023-02-13T04:36:55;103839.63;;;6.59;100.00
20909;BME280;10614;53.198;6.570;2023-02-13T04:38:56;103840.47;;;6.58;100.00
20909;BME280;10614;53.198;6.570;2023-02-13T04:40:59;103831.72;;;6.57;100.00
20909;BME280;10614;53.198;6.570;2023-02-13T04:43:01;103829.13;;;6.57;100.00
20909;BME280;10614;53.198;6.570;2023-02-13T04:45:03;103833.47;;;6.57;100.00
20909;BME280;10614;53.198;6.570;2023-02-13T04:47:05;103834.34;;;6.57;100.00
20909;BME280;10614;53.198;6.570;2023-02-13T04:49:06;103828.25;;;6.57;100.00
20909;BME280;10614;53.198;6.570;2023-02-13T04:51:08;103824.75;;;6.56;100.00
20909;BME280;10614;53.198;6.570;2023-02-13T04:53:09;103819.50;;;6.56;100.00
20909;BME280;10614;53.198;6.570;2023-02-13T04:55:11;103816.84;;;6.54;100.00
20909;BME280;10614;53.198;6.570;2023-02-13T04:57:17;103822.94;;;6.55;100.00
20909;BME280;10614;53.198;6.570;2023-02-13T04:59:19;103824.66;;;6.53;100.00
20909;BME280;10614;53.198;6.570;2023-02-13T05:01:21;103824.63;;;6.51;100.00
20909;BME280;10614;53.198;6.570;2023-02-13T05:03:22;103816.69;;;6.48;100.00
20909;BME280;10614;53.198;6.570;2023-02-13T05:05:24;103812.31;;;6.47;100.00
20909;BME280;10614;53.198;6.570;2023-02-13T05:07:26;103805.34;;;6.48;100.00
20909;BME280;10614;53.198;6.570;2023-02-13T05:09:27;103817.53;;;6.47;100.00
20909;BME280;10614;53.198;6.570;2023-02-13T05:11:29;103812.31;;;6.47;100.00
20909;BME280;10614;53.198;6.570;2023-02-13T05:13:32;103807.06;;;6.47;100.00
20909;BME280;10614;53.198;6.570;2023-02-13T05:15:34;103803.59;;;6.48;100.00
20909;BME280;10614;53.198;6.570;2023-02-13T05:17:35;103801.88;;;6.49;100.00
20909;BME280;10614;53.198;6.570;2023-02-13T05:19:37;103812.31;;;6.47;100.00
20909;BME280;10614;53.198;6.570;2023-02-13T05:21:39;103810.63;;;6.49;100.00
20909;BME280;10614;53.198;6.570;2023-02-13T05:23:58;103812.38;;;6.50;100.00
20909;BME280;10614;53.198;6.570;2023-02-13T05:25:59;103820.22;;;6.50;100.00
20909;BME280;10614;53.198;6.570;2023-02-13T05:28:01;103820.22;;;6.49;100.00
20909;BME280;10614;53.198;6.570;2023-02-13T05:30:06;103822.81;;;6.49;100.00
20909;BME280;10614;53.198;6.570;2023-02-13T05:32:07;103835.00;;;6.48;100.00
20909;BME280;10614;53.198;6.570;2023-02-13T05:34:08;103835.91;;;6.49;100.00
20909;BME280;10614;53.198;6.570;2023-02-13T05:36:10;103839.41;;;6.49;100.00
20909;BME280;10614;53.198;6.570;2023-02-13T05:38:11;103834.16;;;6.49;100.00
20909;BME280;10614;53.198;6.570;2023-02-13T05:40:13;103831.50;;;6.48;100.00
20909;BME280;10614;53.198;6.570;2023-02-13T05:42:15;103834.09;;;6.46;100.00
20909;BME280;10614;53.198;6.570;2023-02-13T05:44:20;103838.44;;;6.46;100.00
20909;BME280;10614;53.198;6.570;2023-02-13T05:46:23;103835.81;;;6.46;100.00
20909;BME280;10614;53.198;6.570;2023-02-13T05:48:24;103834.97;;;6.47;100.00
20909;BME280;10614;53.198;6.570;2023-02-13T05:50:26;103833.19;;;6.44;100.00
20909;BME280;10614;53.198;6.570;2023-02-13T05:52:34;103827.09;;;6.45;100.00
20909;BME280;10614;53.198;6.570;2023-02-13T05:54:36;103830.56;;;6.46;100.00
20909;BME280;10614;53.198;6.570;2023-02-13T05:56:38;103842.78;;;6.45;100.00
20909;BME280;10614;53.198;6.570;2023-02-13T05:58:40;103841.91;;;6.45;100.00
20909;BME280;10614;53.198;6.570;2023-02-13T06:00:42;103842.72;;;6.44;100.00
20909;BME280;10614;53.198;6.570;2023-02-13T06:02:45;103846.22;;;6.43;100.00
20909;BME280;10614;53.198;6.570;2023-02-13T06:04:46;103844.53;;;6.45;100.00
20909;BME280;10614;53.198;6.570;2023-02-13T06:06:48;103841.84;;;6.43;100.00
20909;BME280;10614;53.198;6.570;2023-02-13T06:08:49;103837.44;;;6.41;100.00
20909;BME280;10614;53.198;6.570;2023-02-13T06:10:51;103837.44;;;6.41;100.00
20909;BME280;10614;53.198;6.570;2023-02-13T06:12:53;103845.25;;;6.39;100.00
20909;BME280;10614;53.198;6.570;2023-02-13T06:14:54;103842.59;;;6.38;100.00
20909;BME280;10614;53.198;6.570;2023-02-13T06:16:56;103834.75;;;6.38;100.00
20909;BME280;10614;53.198;6.570;2023-02-13T06:18:59;103839.97;;;6.38;100.00
20909;BME280;10614;53.198;6.570;2023-02-13T06:21:01;103839.09;;;6.37;100.00
20909;BME280;10614;53.198;6.570;2023-02-13T06:23:02;103853.06;;;6.38;100.00
20909;BME280;10614;53.198;6.570;2023-02-13T06:25:05;103849.56;;;6.37;100.00
20909;BME280;10614;53.198;6.570;2023-02-13T06:27:06;103851.28;;;6.37;100.00
20909;BME280;10614;53.198;6.570;2023-02-13T06:29:08;103852.19;;;6.39;100.00
20909;BME280;10614;53.198;6.570;2023-02-13T06:31:10;103853.94;;;6.38;100.00
20909;BME280;10614;53.198;6.570;2023-02-13T06:33:12;103862.66;;;6.37;100.00
20909;BME280;10614;53.198;6.570;2023-02-13T06:35:15;103852.19;;;6.37;100.00
20909;BME280;10614;53.198;6.570;2023-02-13T06:37:17;103850.44;;;6.38;100.00
20909;BME280;10614;53.198;6.570;2023-02-13T06:39:18;103861.75;;;6.37;100.00
20909;BME280;10614;53.198;6.570;2023-02-13T06:41:20;103853.94;;;6.38;100.00
20909;BME280;10614;53.198;6.570;2023-02-13T06:43:21;103854.81;;;6.39;100.00
20909;BME280;10614;53.198;6.570;2023-02-13T06:45:23;103860.09;;;6.40;100.00
20909;BME280;10614;53.198;6.570;2023-02-13T06:47:25;103862.66;;;6.39;100.00
20909;BME280;10614;53.198;6.570;2023-02-13T06:49:26;103870.50;;;6.39;100.00
20909;BME280;10614;53.198;6.570;2023-02-13T06:51:29;103868.75;;;6.38;100.00
20909;BME280;10614;53.198;6.570;2023-02-13T06:53:31;103872.22;;;6.37;100.00
20909;BME280;10614;53.198;6.570;2023-02-13T06:55:32;103870.44;;;6.36;100.00
20909;BME280;10614;53.198;6.570;2023-02-13T06:57:34;103870.44;;;6.36;100.00
20909;BME280;10614;53.198;6.570;2023-02-13T06:59:35;103879.16;;;6.34;100.00
20909;BME280;10614;53.198;6.570;2023-02-13T07:01:37;103884.38;;;6.34;100.00
20909;BME280;10614;53.198;6.570;2023-02-13T07:03:39;103883.53;;;6.36;100.00
20909;BME280;10614;53.198;6.570;2023-02-13T07:05:41;103878.28;;;6.36;100.00
20909;BME280;10614;53.198;6.570;2023-02-13T07:07:45;103881.78;;;6.36;100.00
20909;BME280;10614;53.198;6.570;2023-02-13T07:09:46;103878.28;;;6.36;100.00
20909;BME280;10614;53.198;6.570;2023-02-13T07:11:48;103874.81;;;6.37;100.00
20909;BME280;10614;53.198;6.570;2023-02-13T07:13:50;103876.56;;;6.36;100.00
20909;BME280;10614;53.198;6.570;2023-02-13T07:15:51;103877.41;;;6.35;100.00
20909;BME280;10614;53.198;6.570;2023-02-13T07:17:56;103878.28;;;6.36;100.00
20909;BME280;10614;53.198;6.570;2023-02-13T07:19:58;103880.06;;;6.37;100.00
20909;BME280;10614;53.198;6.570;2023-02-13T07:22:00;103878.28;;;6.36;100.00
20909;BME280;10614;53.198;6.570;2023-02-13T07:24:03;103886.16;;;6.36;100.00
20909;BME280;10614;53.198;6.570;2023-02-13T07:26:05;103878.25;;;6.34;100.00
20909;BME280;10614;53.198;6.570;2023-02-13T07:28:07;103879.16;;;6.34;100.00
20909;BME280;10614;53.198;6.570;2023-02-13T07:30:10;103872.13;;;6.33;100.00
20909;BME280;10614;53.198;6.570;2023-02-13T07:32:12;103881.78;;;6.34;100.00
20909;BME280;10614;53.198;6.570;2023-02-13T07:34:14;103877.41;;;6.35;100.00
20909;BME280;10614;53.198;6.570;2023-02-13T07:36:15;103885.28;;;6.37;100.00
20909;BME280;10614;53.198;6.570;2023-02-13T07:38:18;103874.81;;;6.35;100.00
20909;BME280;10614;53.198;6.570;2023-02-13T07:40:21;103872.22;;;6.37;100.00
20909;BME280;10614;53.198;6.570;2023-02-13T07:42:23;103870.41;;;6.34;100.00
20909;BME280;10614;53.198;6.570;2023-02-13T07:44:24;103867.84;;;6.36;100.00
20909;BME280;10614;53.198;6.570;2023-02-13T07:46:26;103866.94;;;6.35;100.00
20909;BME280;10614;53.198;6.570;2023-02-13T07:48:28;103872.13;;;6.33;100.00
20909;BME280;10614;53.198;6.570;2023-02-13T07:50:30;103866.91;;;6.33;100.00
20909;BME280;10614;53.198;6.570;2023-02-13T07:52:32;103866.91;;;6.33;100.00
20909;BME280;10614;53.198;6.570;2023-02-13T07:54:35;103874.75;;;6.33;100.00
20909;BME280;10614;53.198;6.570;2023-02-13T07:56:47;103879.97;;;6.33;100.00
20909;BME280;10614;53.198;6.570;2023-02-13T07:58:49;103873.06;;;6.36;100.00
20909;BME280;10614;53.198;6.570;2023-02-13T08:00:50;103872.19;;;6.35;100.00
20909;BME280;10614;53.198;6.570;2023-02-13T08:02:52;103873.94;;;6.36;100.00
20909;BME280;10614;53.198;6.570;2023-02-13T08:04:54;103874.00;;;6.38;100.00
20909;BME280;10614;53.198;6.570;2023-02-13T08:06:56;103877.50;;;6.38;100.00
20909;BME280;10614;53.198;6.570;2023-02-13T08:08:57;103881.84;;;6.38;100.00
20909;BME280;10614;53.198;6.570;2023-02-13T08:11:23;103888.00;;;6.40;100.00
20909;BME280;10614;53.198;6.570;2023-02-13T08:13:45;103879.28;;;6.41;100.00
20909;BME280;10614;53.198;6.570;2023-02-13T08:15:47;103889.75;;;6.41;100.00
20909;BME280;10614;53.198;6.570;2023-02-13T08:17:48;103884.53;;;6.41;100.00
20909;BME280;10614;53.198;6.570;2023-02-13T08:19:50;103888.06;;;6.43;100.00
20909;BME280;10614;53.198;6.570;2023-02-13T08:21:51;103890.69;;;6.43;100.00
20909;BME280;10614;53.198;6.570;2023-02-13T08:23:53;103882.84;;;6.43;100.00
20909;BME280;10614;53.198;6.570;2023-02-13T08:25:58;103886.38;;;6.45;100.00
20909;BME280;10614;53.198;6.570;2023-02-13T08:28:00;103894.25;;;6.45;100.00
20909;BME280;10614;53.198;6.570;2023-02-13T08:30:05;103890.75;;;6.46;100.00
20909;BME280;10614;53.198;6.570;2023-02-13T08:32:07;103903.84;;;6.46;100.00
20909;BME280;10614;53.198;6.570;2023-02-13T08:34:09;103900.41;;;6.47;100.00
20909;BME280;10614;53.198;6.570;2023-02-13T08:36:10;103897.72;;;6.45;100.00
20909;BME280;10614;53.198;6.570;2023-02-13T08:38:12;103900.34;;;6.45;100.00
20909;BME280;10614;53.198;6.570;2023-02-13T08:40:14;103905.63;;;6.47;100.00
20909;BME280;10614;53.198;6.570;2023-02-13T08:42:15;103891.69;;;6.46;100.00
20909;BME280;10614;53.198;6.570;2023-02-13T08:44:17;103902.16;;;6.46;100.00
20909;BME280;10614;53.198;6.570;2023-02-13T08:46:20;103899.53;;;6.46;100.00
20909;BME280;10614;53.198;6.570;2023-02-13T08:48:22;103899.53;;;6.48;100.00
20909;BME280;10614;53.198;6.570;2023-02-13T08:50:24;103914.38;;;6.47;100.00
20909;BME280;10614;53.198;6.570;2023-02-13T08:52:26;103908.28;;;6.48;100.00
20909;BME280;10614;53.198;6.570;2023-02-13T08:54:28;103907.41;;;6.48;100.00
20909;BME280;10614;53.198;6.570;2023-02-13T08:56:29;103906.56;;;6.49;100.00
20909;BME280;10614;53.198;6.570;2023-02-13T08:58:31;103897.84;;;6.50;100.00
20909;BME280;10614;53.198;6.570;2023-02-13T09:00:33;103901.34;;;6.49;100.00
20909;BME280;10614;53.198;6.570;2023-02-13T09:02:36;103898.72;;;6.50;100.00
20909;BME280;10614;53.198;6.570;2023-02-13T09:04:37;103897.91;;;6.51;100.00
20909;BME280;10614;53.198;6.570;2023-02-13T09:06:39;103892.69;;;6.53;100.00
20909;BME280;10614;53.198;6.570;2023-02-13T09:08:41;103904.94;;;6.54;100.00
20909;BME280;10614;53.198;6.570;2023-02-13T09:10:42;103905.00;;;6.55;100.00
20909;BME280;10614;53.198;6.570;2023-02-13T09:12:51;103896.28;;;6.57;100.00
20909;BME280;10614;53.198;6.570;2023-02-13T09:14:52;103883.16;;;6.55;100.00
20909;BME280;10614;53.198;6.570;2023-02-13T09:16:54;103905.91;;;6.58;100.00
20909;BME280;10614;53.198;6.570;2023-02-13T09:18:57;103901.56;;;6.58;100.00
20909;BME280;10614;53.198;6.570;2023-02-13T09:20:59;103898.09;;;6.59;100.00
20909;BME280;10614;53.198;6.570;2023-02-13T09:23:01;103896.41;;;6.61;100.00
20909;BME280;10614;53.198;6.570;2023-02-13T09:25:04;103893.78;;;6.61;100.00
20909;BME280;10614;53.198;6.570;2023-02-13T09:27:06;103889.44;;;6.62;100.00
20909;BME280;10614;53.198;6.570;2023-02-13T09:29:08;103890.34;;;6.64;100.00
20909;BME280;10614;53.198;6.570;2023-02-13T09:31:11;103898.22;;;6.64;100.00
20909;BME280;10614;53.198;6.570;2023-02-13T09:33:14;103890.31;;;6.62;100.00
20909;BME280;10614;53.198;6.570;2023-02-13T09:35:17;103891.28;;;6.66;100.00
20909;BME280;10614;53.198;6.570;2023-02-13T09:37:19;103893.03;;;6.65;100.00
20909;BME280;10614;53.198;6.570;2023-02-13T09:39:22;103894.72;;;6.65;100.00
20909;BME280;10614;53.198;6.570;2023-02-13T09:41:25;103885.19;;;6.65;100.00
20909;BME280;10614;53.198;6.570;2023-02-13T09:43:29;103892.16;;;6.66;100.00
20909;BME280;10614;53.198;6.570;2023-02-13T09:45:33;103893.09;;;6.68;100.00
20909;BME280;10614;53.198;6.570;2023-02-13T09:47:36;103891.34;;;6.69;100.00
20909;BME280;10614;53.198;6.570;2023-02-13T09:49:42;103893.16;;;6.70;100.00
20909;BME280;10614;53.198;6.570;2023-02-13T09:51:49;103898.38;;;6.70;100.00
20909;BME280;10614;53.198;6.570;2023-02-13T09:53:54;103903.56;;;6.68;100.00
20909;BME280;10614;53.198;6.570;2023-02-13T09:56:06;103901.88;;;6.70;100.00
20909;BME280;10614;53.198;6.570;2023-02-13T09:58:18;103899.25;;;6.70;100.00
20909;BME280;10614;53.198;6.570;2023-02-13T10:03:18;103894.09;;;6.73;100.00
20909;BME280;10614;53.198;6.570;2023-02-13T10:05:44;103901.94;;;6.73;100.00
20909;BME280;10614;53.198;6.570;2023-02-13T10:07:54;103902.00;;;6.75;100.00
20909;BME280;10614;53.198;6.570;2023-02-13T10:10:01;103900.25;;;6.75;100.00
20909;BME280;10614;53.198;6.570;2023-02-13T10:12:19;103905.50;;;6.75;100.00
20909;BME280;10614;53.198;6.570;2023-02-13T10:14:26;103896.75;;;6.75;100.00
20909;BME280;10614;53.198;6.570;2023-02-13T10:16:34;103895.88;;;6.74;100.00
20909;BME280;10614;53.198;6.570;2023-02-13T10:18:44;103893.28;;;6.76;100.00
20909;BME280;10614;53.198;6.570;2023-02-13T10:20:50;103892.41;;;6.75;100.00
20909;BME280;10614;53.198;6.570;2023-02-13T10:22:55;103893.28;;;6.76;100.00
20909;BME280;10614;53.198;6.570;2023-02-13T10:25:03;103895.06;;;6.77;100.00
20909;BME280;10614;53.198;6.570;2023-02-13T10:27:16;103895.09;;;6.79;100.00
20909;BME280;10614;53.198;6.570;2023-02-13T10:29:22;103887.28;;;6.80;100.00
20909;BME280;10614;53.198;6.570;2023-02-13T10:31:44;103903.03;;;6.82;100.00
20909;BME280;10614;53.198;6.570;2023-02-13T10:33:49;103906.59;;;6.84;100.00
20909;BME280;10614;53.198;6.570;2023-02-13T10:35:59;103891.66;;;6.81;100.00
20909;BME280;10614;53.198;6.570;2023-02-13T10:38:13;103891.69;;;6.83;100.00
20909;BME280;10614;53.198;6.570;2023-02-13T10:40:15;103903.09;;;6.85;100.00
20909;BME280;10614;53.198;6.570;2023-02-13T10:42:20;103900.53;;;6.86;100.00
20909;BME280;10614;53.198;6.570;2023-02-13T10:44:47;103896.16;;;6.87;100.00
20909;BME280;10614;53.198;6.570;2023-02-13T10:47:01;103892.63;;;6.85;100.00
20909;BME280;10614;53.198;6.570;2023-02-13T10:49:23;103895.34;;;6.89;100.00
20909;BME280;10614;53.198;6.570;2023-02-13T10:51:33;103890.13;;;6.89;100.00
20909;BME280;10614;53.198;6.570;2023-02-13T10:53:59;103895.41;;;6.91;100.00
20909;BME280;10614;53.198;6.570;2023-02-13T10:56:23;103898.09;;;6.94;100.00
20909;BME280;10614;53.198;6.570;2023-02-13T10:58:30;103891.09;;;6.94;100.00
20909;BME280;10614;53.198;6.570;2023-02-13T11:00:40;103890.28;;;6.97;100.00
20909;BME280;10614;53.198;6.570;2023-02-13T11:02:44;103890.34;;;6.98;100.00
20909;BME280;10614;53.198;6.570;2023-02-13T11:04:46;103897.38;;;7.01;100.00
20909;BME280;10614;53.198;6.570;2023-02-13T11:06:54;103886.03;;;7.02;100.00
20909;BME280;10614;53.198;6.570;2023-02-13T11:08:57;103884.34;;;7.04;100.00